Time;durP1;ratioP1;P1;durP2;ratioP2;P2;SDS_P1;SDS_P2;PMS_P1;PMS_P2;Temp;Humidity;BMP_temperature;BMP_pressure;BME280_temperature;BME280_humidity;BME280_pressure;Samples;Min_cycle;Max_cycle;Signal;HPM_P1;HPM_P2
2020/12/20 00:00:10;;;;;;;1.00;1.00;;;;;;;;;;4981597;28;20180;-64
2020/12/20 00:02:36;;;;;;;2.30;2.20;;;;;;;;;;4982600;28;21063;-66
2020/12/20 00:05:02;;;;;;;2.17;2.08;;;;;;;;;;4982575;28;20182;-65
2020/12/20 00:07:28;;;;;;;1.33;1.25;;;;;;;;;;4982017;28;20218;-66
2020/12/20 00:09:54;;;;;;;1.83;1.73;;;;;;;;;;4981082;28;20188;-65
2020/12/20 00:12:23;;;;;;;1.70;1.60;;;;;;;;;;4982217;28;20413;-65
2020/12/20 00:14:49;;;;;;;1.95;1.30;;;;;;;;;;4982899;28;20174;-65
2020/12/20 00:17:15;;;;;;;1.67;1.60;;;;;;;;;;5030261;23;20287;-65
2020/12/20 00:19:42;;;;;;;3.27;2.87;;;;;;;;;;4983505;28;20410;-66
2020/12/20 00:22:09;;;;;;;1.98;1.88;;;;;;;;;;4977369;28;20479;-65
2020/12/20 00:24:35;;;;;;;2.60;2.40;;;;;;;;;;4992017;28;20190;-66
2020/12/20 00:27:02;;;;;;;1.15;1.15;;;;;;;;;;4984258;28;20205;-65
2020/12/20 00:29:28;;;;;;;1.85;1.75;;;;;;;;;;4981512;28;20271;-65
2020/12/20 00:31:55;;;;;;;2.65;2.42;;;;;;;;;;4983191;28;20182;-65
2020/12/20 00:34:21;;;;;;;2.13;2.03;;;;;;;;;;4981243;28;20627;-66
2020/12/20 00:36:48;;;;;;;1.73;1.63;;;;;;;;;;4981158;28;20190;-67
2020/12/20 00:39:15;;;;;;;6.85;2.78;;;;;;;;;;4981453;28;20320;-66
2020/12/20 00:41:41;;;;;;;1.85;1.75;;;;;;;;;;4966620;28;20213;-65
2020/12/20 00:44:07;;;;;;;4.32;2.63;;;;;;;;;;4992278;28;20175;-65
2020/12/20 00:46:36;;;;;;;1.75;1.65;;;;;;;;;;4992288;28;20193;-65
2020/12/20 00:49:03;;;;;;;2.97;1.95;;;;;;;;;;4990789;28;20662;-65
2020/12/20 00:51:32;;;;;;;8.00;1.92;;;;;;;;;;4992231;28;20207;-65
2020/12/20 00:53:59;;;;;;;1.10;1.10;;;;;;;;;;4992401;28;20212;-65
2020/12/20 00:56:25;;;;;;;1.83;1.60;;;;;;;;;;4992136;28;20276;-65
2020/12/20 00:58:51;;;;;;;1.30;1.20;;;;;;;;;;4991903;28;20240;-66
2020/12/20 01:01:17;;;;;;;0.73;0.73;;;;;;;;;;4993958;28;20208;-65
2020/12/20 01:03:43;;;;;;;2.60;2.15;;;;;;;;;;4995728;28;20463;-65
2020/12/20 01:06:14;;;;;;;1.40;1.35;;;;;;;;;;4996145;28;20195;-65
2020/12/20 01:08:41;;;;;;;2.75;2.58;;;;;;;;;;4993672;28;20548;-65
2020/12/20 01:11:07;;;;;;;2.58;2.40;;;;;;;;;;4995924;28;20206;-65
2020/12/20 01:13:33;;;;;;;1.88;1.65;;;;;;;;;;4996039;28;20264;-65
2020/12/20 01:15:59;;;;;;;1.95;1.85;;;;;;;;;;4995836;28;20564;-65
2020/12/20 01:18:26;;;;;;;1.77;1.70;;;;;;;;;;4995851;28;20239;-65
2020/12/20 01:20:52;;;;;;;2.85;2.65;;;;;;;;;;4995857;28;20210;-66
2020/12/20 01:23:18;;;;;;;1.48;1.25;;;;;;;;;;4994246;28;20266;-65
2020/12/20 01:25:44;;;;;;;1.70;1.60;;;;;;;;;;4994460;28;20618;-65
2020/12/20 01:28:10;;;;;;;1.27;1.25;;;;;;;;;;4995730;28;20413;-66
2020/12/20 01:30:35;;;;;;;1.20;1.10;;;;;;;;;;4995525;28;20261;-66
2020/12/20 01:33:02;;;;;;;1.70;1.60;;;;;;;;;;4996537;28;20413;-66
2020/12/20 01:35:27;;;;;;;1.13;1.13;;;;;;;;;;4995641;28;20405;-65
2020/12/20 01:37:53;;;;;;;1.70;1.60;;;;;;;;;;4995565;28;20207;-65
2020/12/20 01:40:20;;;;;;;1.30;1.20;;;;;;;;;;4995310;28;20409;-65
2020/12/20 01:42:46;;;;;;;1.60;0.90;;;;;;;;;;4995572;28;20459;-66
2020/12/20 01:45:12;;;;;;;2.67;1.15;;;;;;;;;;4995495;28;20519;-65
2020/12/20 01:47:38;;;;;;;0.93;0.93;;;;;;;;;;4995298;28;20252;-66
2020/12/20 01:50:04;;;;;;;1.60;1.60;;;;;;;;;;4995185;28;20405;-65
2020/12/20 01:52:31;;;;;;;4.88;2.50;;;;;;;;;;4995336;28;20184;-66
2020/12/20 01:55:00;;;;;;;1.42;1.33;;;;;;;;;;4995384;28;20209;-65
2020/12/20 01:57:26;;;;;;;2.63;2.50;;;;;;;;;;4995149;28;20283;-65
2020/12/20 01:59:52;;;;;;;1.75;1.65;;;;;;;;;;4994962;28;20186;-66
2020/12/20 02:02:20;;;;;;;1.42;1.33;;;;;;;;;;4995096;28;20198;-66
2020/12/20 02:04:47;;;;;;;3.60;1.40;;;;;;;;;;4993861;28;20204;-66
2020/12/20 02:07:13;;;;;;;0.95;0.95;;;;;;;;;;4994920;28;20197;-65
2020/12/20 02:09:39;;;;;;;1.77;1.55;;;;;;;;;;4994836;28;20192;-63
2020/12/20 02:12:06;;;;;;;1.30;1.30;;;;;;;;;;4993578;28;20189;-65
2020/12/20 02:14:32;;;;;;;1.30;1.30;;;;;;;;;;4994828;28;20239;-65
2020/12/20 02:16:59;;;;;;;2.13;1.95;;;;;;;;;;4994685;28;20259;-65
2020/12/20 02:19:25;;;;;;;0.95;0.95;;;;;;;;;;4995086;28;20205;-65
2020/12/20 02:21:51;;;;;;;2.00;1.90;;;;;;;;;;4994828;28;20578;-65
2020/12/20 02:24:17;;;;;;;1.80;1.70;;;;;;;;;;4994750;28;20526;-65
2020/12/20 02:26:43;;;;;;;1.52;1.42;;;;;;;;;;4993319;28;20654;-65
2020/12/20 02:29:09;;;;;;;2.47;2.38;;;;;;;;;;4993116;28;20170;-65
2020/12/20 02:31:35;;;;;;;1.40;1.30;;;;;;;;;;4994665;28;20178;-65
2020/12/20 02:34:02;;;;;;;2.15;1.95;;;;;;;;;;4993586;28;20926;-66
2020/12/20 02:36:29;;;;;;;1.85;1.75;;;;;;;;;;4994295;28;20201;-66
2020/12/20 02:38:55;;;;;;;0.70;0.68;;;;;;;;;;4993925;28;20653;-65
2020/12/20 02:41:21;;;;;;;2.00;1.60;;;;;;;;;;4994099;28;20197;-65
2020/12/20 02:43:47;;;;;;;2.60;2.40;;;;;;;;;;4994137;28;20420;-65
2020/12/20 02:46:13;;;;;;;3.00;1.88;;;;;;;;;;4994051;28;20751;-65
2020/12/20 02:48:39;;;;;;;1.05;1.05;;;;;;;;;;4994111;28;20568;-65
2020/12/20 02:51:05;;;;;;;2.30;2.03;;;;;;;;;;4993761;28;20224;-65
2020/12/20 02:53:31;;;;;;;1.77;0.80;;;;;;;;;;4993871;28;20210;-65
2020/12/20 02:55:57;;;;;;;1.77;1.67;;;;;;;;;;4993861;28;20609;-65
2020/12/20 02:58:23;;;;;;;1.90;1.80;;;;;;;;;;4993877;28;20495;-65
2020/12/20 03:00:49;;;;;;;1.23;1.13;;;;;;;;;;4993580;28;20832;-66
2020/12/20 03:03:15;;;;;;;2.03;1.73;;;;;;;;;;4994032;28;20182;-65
2020/12/20 03:05:41;;;;;;;0.87;0.87;;;;;;;;;;4993707;28;20441;-65
2020/12/20 03:08:07;;;;;;;2.27;1.60;;;;;;;;;;4993550;28;20408;-65
2020/12/20 03:10:33;;;;;;;2.75;2.55;;;;;;;;;;4993412;28;20444;-65
2020/12/20 03:12:59;;;;;;;2.33;2.13;;;;;;;;;;4993662;28;20756;-66
2020/12/20 03:15:25;;;;;;;1.65;1.63;;;;;;;;;;4993588;28;20902;-65
2020/12/20 03:17:51;;;;;;;2.80;2.30;;;;;;;;;;4993504;28;20209;-65
2020/12/20 03:20:17;;;;;;;1.83;1.73;;;;;;;;;;4993201;28;20416;-65
2020/12/20 03:22:43;;;;;;;2.03;1.80;;;;;;;;;;4993294;28;20178;-64
2020/12/20 03:25:09;;;;;;;1.40;1.30;;;;;;;;;;4992869;28;20174;-64
2020/12/20 03:27:36;;;;;;;1.70;1.60;;;;;;;;;;4993192;28;20204;-64
2020/12/20 03:30:03;;;;;;;1.40;1.08;;;;;;;;;;4993110;28;20230;-64
2020/12/20 03:32:29;;;;;;;2.83;2.63;;;;;;;;;;4993209;28;20745;-64
2020/12/20 03:34:55;;;;;;;3.10;2.10;;;;;;;;;;4993178;28;20209;-64
2020/12/20 03:37:21;;;;;;;2.70;1.52;;;;;;;;;;4992912;28;20554;-64
2020/12/20 03:39:47;;;;;;;2.53;2.33;;;;;;;;;;4992711;28;20255;-64
2020/12/20 03:42:13;;;;;;;2.57;2.00;;;;;;;;;;4992924;28;20630;-64
2020/12/20 03:44:39;;;;;;;2.33;2.05;;;;;;;;;;4992856;28;20414;-64
2020/12/20 03:47:05;;;;;;;4.93;2.83;;;;;;;;;;4992853;28;20197;-65
2020/12/20 03:49:31;;;;;;;1.35;1.25;;;;;;;;;;4991479;28;20605;-64
2020/12/20 03:51:57;;;;;;;5.55;2.80;;;;;;;;;;4992740;28;20191;-64
2020/12/20 03:54:24;;;;;;;1.90;1.63;;;;;;;;;;4992759;28;20658;-64
2020/12/20 03:56:54;;;;;;;2.10;2.00;;;;;;;;;;4992572;28;20436;-64
2020/12/20 03:59:20;;;;;;;3.03;2.83;;;;;;;;;;4992781;28;20253;-64
2020/12/20 04:01:46;;;;;;;2.53;2.33;;;;;;;;;;4992877;28;20236;-65
2020/12/20 04:04:12;;;;;;;1.48;1.35;;;;;;;;;;4995285;28;20177;-64
2020/12/20 04:06:38;;;;;;;2.53;2.33;;;;;;;;;;4998908;28;20197;-64
2020/12/20 04:09:04;;;;;;;1.77;1.67;;;;;;;;;;5000346;28;20425;-64
2020/12/20 04:11:30;;;;;;;4.63;2.03;;;;;;;;;;4995626;28;20175;-65
2020/12/20 04:13:56;;;;;;;1.63;1.53;;;;;;;;;;4993616;28;20859;-64
2020/12/20 04:16:22;;;;;;;2.37;2.27;;;;;;;;;;4992667;28;20448;-64
2020/12/20 04:18:48;;;;;;;3.67;3.37;;;;;;;;;;4992653;28;20420;-64
2020/12/20 04:21:14;;;;;;;1.50;1.40;;;;;;;;;;4992720;28;20465;-64
2020/12/20 04:23:40;;;;;;;1.58;1.13;;;;;;;;;;4992679;28;20176;-64
2020/12/20 04:26:06;;;;;;;2.10;1.90;;;;;;;;;;4992437;28;20685;-64
2020/12/20 04:28:32;;;;;;;1.50;1.25;;;;;;;;;;4992526;28;20444;-64
2020/12/20 04:30:58;;;;;;;3.45;2.80;;;;;;;;;;4992355;28;20526;-64
2020/12/20 04:33:24;;;;;;;1.80;1.73;;;;;;;;;;4992440;28;20174;-64
2020/12/20 04:35:50;;;;;;;1.55;1.45;;;;;;;;;;4991535;28;20704;-64
2020/12/20 04:38:16;;;;;;;4.67;3.17;;;;;;;;;;4992427;28;20270;-64
2020/12/20 04:40:42;;;;;;;1.50;1.50;;;;;;;;;;4992123;28;20482;-65
2020/12/20 04:43:09;;;;;;;5.18;2.47;;;;;;;;;;4992449;28;20408;-65
2020/12/20 04:45:36;;;;;;;1.73;1.73;;;;;;;;;;4992305;28;20281;-65
2020/12/20 04:48:03;;;;;;;1.33;1.33;;;;;;;;;;4991960;28;20197;-65
2020/12/20 04:50:29;;;;;;;1.00;1.00;;;;;;;;;;4991906;28;20592;-65
2020/12/20 04:52:56;;;;;;;2.97;2.78;;;;;;;;;;4992243;28;20874;-65
2020/12/20 04:55:23;;;;;;;3.17;1.80;;;;;;;;;;4992549;28;20180;-65
2020/12/20 04:57:49;;;;;;;1.40;1.40;;;;;;;;;;4992174;28;20231;-65
2020/12/20 05:00:16;;;;;;;1.80;1.27;;;;;;;;;;4992019;28;20174;-65
2020/12/20 05:02:42;;;;;;;0.98;0.98;;;;;;;;;;4992029;28;20244;-65
2020/12/20 05:05:08;;;;;;;2.17;1.30;;;;;;;;;;4992156;28;20180;-65
2020/12/20 05:07:34;;;;;;;1.98;1.83;;;;;;;;;;4992057;28;20195;-65
2020/12/20 05:10:00;;;;;;;1.75;1.75;;;;;;;;;;4991809;28;20194;-65
2020/12/20 05:12:28;;;;;;;1.83;1.73;;;;;;;;;;4992252;28;20310;-65
2020/12/20 05:14:54;;;;;;;1.75;1.65;;;;;;;;;;4992011;28;20174;-65
2020/12/20 05:17:20;;;;;;;2.35;1.40;;;;;;;;;;4991966;28;20212;-65
2020/12/20 05:19:46;;;;;;;1.52;1.42;;;;;;;;;;4992029;28;20185;-65
2020/12/20 05:22:15;;;;;;;1.55;1.45;;;;;;;;;;4992014;28;20210;-65
2020/12/20 05:24:42;;;;;;;4.10;3.70;;;;;;;;;;4992028;28;20168;-65
2020/12/20 05:27:21;;;;;;;3.22;3.03;;;;;;;;;;4991952;28;20226;-65
2020/12/20 05:29:49;;;;;;;1.48;1.48;;;;;;;;;;4991658;28;20207;-65
2020/12/20 05:32:25;;;;;;;1.80;1.70;;;;;;;;;;4991966;28;20229;-65
2020/12/20 05:35:01;;;;;;;1.77;1.67;;;;;;;;;;4991885;28;20181;-65
2020/12/20 05:37:31;;;;;;;2.05;1.73;;;;;;;;;;4991733;28;20198;-65
2020/12/20 05:39:57;;;;;;;1.45;1.42;;;;;;;;;;4992013;28;20181;-65
2020/12/20 05:42:24;;;;;;;3.05;1.80;;;;;;;;;;4991753;28;20575;-65
2020/12/20 05:44:51;;;;;;;2.40;2.20;;;;;;;;;;4991785;28;20175;-65
2020/12/20 05:47:23;;;;;;;1.55;1.45;;;;;;;;;;4993306;28;20217;-65
2020/12/20 05:49:50;;;;;;;1.55;1.45;;;;;;;;;;4995165;28;20182;-65
2020/12/20 05:52:16;;;;;;;3.28;2.55;;;;;;;;;;4994130;28;20186;-65
2020/12/20 05:54:43;;;;;;;2.00;1.90;;;;;;;;;;4995260;28;20175;-65
2020/12/20 05:57:13;;;;;;;1.90;1.80;;;;;;;;;;4995173;28;20233;-65
2020/12/20 05:59:40;;;;;;;2.15;2.05;;;;;;;;;;4995148;28;20176;-65
2020/12/20 06:02:06;;;;;;;3.85;2.33;;;;;;;;;;4995033;28;20208;-65
2020/12/20 06:04:33;;;;;;;2.50;2.30;;;;;;;;;;4995173;28;20669;-65
2020/12/20 06:06:59;;;;;;;2.50;2.40;;;;;;;;;;4994976;28;20185;-65
2020/12/20 06:09:26;;;;;;;2.42;1.45;;;;;;;;;;4994784;28;20646;-65
2020/12/20 06:11:53;;;;;;;14.57;3.15;;;;;;;;;;4995034;28;20185;-65
2020/12/20 06:14:21;;;;;;;1.95;1.85;;;;;;;;;;4995009;28;20180;-65
2020/12/20 06:16:51;;;;;;;1.35;1.10;;;;;;;;;;5020819;23;20255;-66
2020/12/20 06:19:19;;;;;;;2.63;1.88;;;;;;;;;;5033901;28;20611;-66
2020/12/20 06:21:58;;;;;;;1.45;1.35;;;;;;;;;;5033752;28;20250;-65
2020/12/20 06:24:27;;;;;;;2.15;2.05;;;;;;;;;;5034295;28;20174;-67
2020/12/20 06:26:57;;;;;;;2.63;2.15;;;;;;;;;;5034154;28;20216;-66
2020/12/20 06:29:24;;;;;;;2.42;2.15;;;;;;;;;;5033958;28;20248;-64
2020/12/20 06:31:50;;;;;;;2.38;2.28;;;;;;;;;;5034206;28;20172;-66
2020/12/20 06:34:17;;;;;;;1.33;1.33;;;;;;;;;;5034071;28;20172;-65
2020/12/20 06:36:45;;;;;;;1.67;1.58;;;;;;;;;;5033887;28;20360;-65
2020/12/20 06:39:16;;;;;;;2.63;2.45;;;;;;;;;;5033686;28;20178;-66
2020/12/20 06:41:42;;;;;;;2.25;2.15;;;;;;;;;;5033852;28;20208;-67
2020/12/20 06:44:15;;;;;;;1.40;1.40;;;;;;;;;;5033790;28;20180;-67
2020/12/20 06:46:42;;;;;;;0.90;0.90;;;;;;;;;;5033667;28;20223;-66
2020/12/20 06:49:27;;;;;;;2.70;2.45;;;;;;;;;;5033398;28;20714;-67
2020/12/20 06:52:13;;;;;;;1.60;1.50;;;;;;;;;;5033617;28;20642;-67
2020/12/20 06:54:39;;;;;;;2.95;2.67;;;;;;;;;;5033526;28;20207;-66
2020/12/20 06:57:11;;;;;;;2.30;2.20;;;;;;;;;;5033417;28;20638;-67
2020/12/20 06:59:43;;;;;;;3.45;1.77;;;;;;;;;;5032268;28;20457;-65
2020/12/20 07:02:09;;;;;;;1.70;1.60;;;;;;;;;;5033296;28;20199;-66
2020/12/20 07:04:42;;;;;;;1.27;1.27;;;;;;;;;;5033552;28;20211;-66
2020/12/20 07:07:10;;;;;;;1.17;1.17;;;;;;;;;;5033433;28;20606;-66
2020/12/20 07:09:36;;;;;;;2.15;2.05;;;;;;;;;;5033257;28;20221;-65
2020/12/20 07:12:02;;;;;;;3.27;2.13;;;;;;;;;;5033281;28;20179;-66
2020/12/20 07:14:34;;;;;;;2.88;2.67;;;;;;;;;;5033232;28;20921;-66
2020/12/20 07:17:00;;;;;;;1.65;1.55;;;;;;;;;;5032900;28;20202;-66
2020/12/20 07:19:26;;;;;;;1.23;1.23;;;;;;;;;;5032904;28;20190;-65
2020/12/20 07:21:53;;;;;;;3.08;2.85;;;;;;;;;;5032952;28;20286;-65
2020/12/20 07:24:23;;;;;;;1.50;1.23;;;;;;;;;;5031507;28;20175;-66
2020/12/20 07:26:56;;;;;;;2.33;2.20;;;;;;;;;;5032879;28;20253;-66
2020/12/20 07:29:22;;;;;;;5.38;3.00;;;;;;;;;;5032583;28;20187;-65
2020/12/20 07:31:53;;;;;;;2.03;1.92;;;;;;;;;;5032763;28;20178;-65
2020/12/20 07:34:19;;;;;;;2.15;2.05;;;;;;;;;;5032782;28;20173;-66
2020/12/20 07:36:45;;;;;;;1.20;1.20;;;;;;;;;;5032647;28;20195;-66
2020/12/20 07:39:11;;;;;;;1.40;1.30;;;;;;;;;;5032422;28;20233;-65
2020/12/20 07:41:37;;;;;;;2.47;2.28;;;;;;;;;;5032526;28;20302;-66
2020/12/20 07:44:04;;;;;;;3.50;2.10;;;;;;;;;;5032563;28;20203;-66
2020/12/20 07:46:30;;;;;;;2.53;2.38;;;;;;;;;;5032441;28;20198;-65
2020/12/20 07:49:01;;;;;;;1.92;1.83;;;;;;;;;;5032355;28;20172;-65
2020/12/20 07:51:27;;;;;;;3.95;2.50;;;;;;;;;;5032556;28;20222;-66
2020/12/20 07:53:57;;;;;;;1.95;1.85;;;;;;;;;;5032466;28;20203;-65
2020/12/20 07:56:24;;;;;;;2.83;2.63;;;;;;;;;;5030913;28;20187;-66
2020/12/20 07:58:51;;;;;;;3.72;2.85;;;;;;;;;;5029952;28;20183;-62
2020/12/20 08:01:17;;;;;;;2.33;1.30;;;;;;;;;;5031470;28;20210;-65
2020/12/20 08:03:43;;;;;;;1.98;1.88;;;;;;;;;;5032089;28;20175;-66
2020/12/20 08:06:09;;;;;;;1.92;1.83;;;;;;;;;;5031860;28;20655;-66
2020/12/20 08:08:36;;;;;;;3.10;1.38;;;;;;;;;;5031828;28;20177;-63
2020/12/20 08:11:03;;;;;;;2.33;2.20;;;;;;;;;;5030982;28;20184;-66
2020/12/20 08:13:30;;;;;;;3.05;1.70;;;;;;;;;;5030992;28;20183;-65
2020/12/20 08:15:56;;;;;;;1.77;1.67;;;;;;;;;;5018211;28;20215;-66
2020/12/20 08:18:22;;;;;;;1.50;1.35;;;;;;;;;;5011744;28;20208;-65
2020/12/20 08:20:48;;;;;;;1.85;1.75;;;;;;;;;;5019297;28;20201;-66
2020/12/20 08:23:14;;;;;;;1.58;1.48;;;;;;;;;;5015802;28;20188;-66
2020/12/20 08:25:40;;;;;;;3.17;2.40;;;;;;;;;;5011680;28;20274;-65
2020/12/20 08:28:06;;;;;;;1.65;1.55;;;;;;;;;;5011449;28;20608;-66
2020/12/20 08:30:36;;;;;;;1.77;1.77;;;;;;;;;;5014375;28;20185;-66
2020/12/20 08:33:02;;;;;;;2.85;2.22;;;;;;;;;;5011321;28;20170;-65
2020/12/20 08:35:28;;;;;;;2.97;1.70;;;;;;;;;;5011805;28;20553;-63
2020/12/20 08:37:55;;;;;;;2.55;2.35;;;;;;;;;;5027459;28;20442;-64
2020/12/20 08:40:21;;;;;;;1.85;1.75;;;;;;;;;;5022457;28;20946;-64
2020/12/20 08:42:50;;;;;;;4.35;2.55;;;;;;;;;;5027671;28;20685;-64
2020/12/20 08:45:18;;;;;;;1.83;1.73;;;;;;;;;;5027855;28;20227;-63
2020/12/20 08:47:45;;;;;;;1.50;1.40;;;;;;;;;;5028372;28;20261;-66
2020/12/20 08:50:12;;;;;;;2.47;1.75;;;;;;;;;;5025500;28;20193;-67
2020/12/20 08:52:38;;;;;;;2.70;2.22;;;;;;;;;;5017419;28;20687;-65
2020/12/20 08:55:05;;;;;;;2.45;2.08;;;;;;;;;;5012215;28;20181;-66
2020/12/20 08:57:32;;;;;;;2.55;2.35;;;;;;;;;;5011629;28;20212;-65
2020/12/20 09:00:08;;;;;;;3.38;2.10;;;;;;;;;;5011341;28;20668;-67
2020/12/20 09:02:34;;;;;;;1.20;1.20;;;;;;;;;;5011241;28;20201;-66
2020/12/20 09:05:01;;;;;;;2.15;1.40;;;;;;;;;;5011484;28;20192;-67
2020/12/20 09:07:32;;;;;;;3.15;2.95;;;;;;;;;;5010829;28;20189;-67
2020/12/20 09:10:01;;;;;;;2.92;1.98;;;;;;;;;;5011278;28;20197;-67
2020/12/20 09:12:27;;;;;;;2.80;2.60;;;;;;;;;;5011014;28;20188;-67
2020/12/20 09:15:05;;;;;;;1.73;1.60;;;;;;;;;;5011367;28;20180;-65
2020/12/20 09:17:31;;;;;;;2.70;2.50;;;;;;;;;;5010593;28;20455;-67
2020/12/20 09:19:58;;;;;;;1.90;1.80;;;;;;;;;;5011477;28;20188;-66
2020/12/20 09:22:37;;;;;;;2.15;2.05;;;;;;;;;;5013440;28;20216;-67
2020/12/20 09:25:03;;;;;;;2.10;2.00;;;;;;;;;;5015253;28;20256;-67
2020/12/20 09:27:29;;;;;;;2.20;1.65;;;;;;;;;;5015311;28;20294;-66
2020/12/20 09:29:55;;;;;;;2.30;2.10;;;;;;;;;;5014695;28;20671;-67
2020/12/20 09:32:21;;;;;;;1.80;1.73;;;;;;;;;;5030422;28;20195;-67
2020/12/20 09:34:47;;;;;;;1.88;1.77;;;;;;;;;;5031193;28;21016;-66
2020/12/20 09:37:13;;;;;;;2.37;2.27;;;;;;;;;;5021019;28;20283;-65
2020/12/20 09:39:55;;;;;;;3.85;1.98;;;;;;;;;;5014399;28;20408;-66
2020/12/20 09:42:21;;;;;;;1.40;1.27;;;;;;;;;;5014882;28;20205;-66
2020/12/20 09:44:47;;;;;;;5.32;4.22;;;;;;;;;;5018408;28;20184;-67
2020/12/20 09:47:13;;;;;;;1.60;1.60;;;;;;;;;;5032364;28;20196;-66
2020/12/20 09:49:40;;;;;;;2.92;1.77;;;;;;;;;;5031691;28;20516;-65
2020/12/20 09:52:06;;;;;;;2.38;2.28;;;;;;;;;;5013943;28;20173;-66
2020/12/20 09:54:32;;;;;;;1.60;1.50;;;;;;;;;;5014452;28;20187;-66
2020/12/20 09:56:58;;;;;;;2.03;1.93;;;;;;;;;;5013965;28;20876;-65
2020/12/20 09:59:24;;;;;;;1.92;1.83;;;;;;;;;;5013996;28;20570;-63
2020/12/20 10:01:50;;;;;;;1.45;1.38;;;;;;;;;;5028642;28;20240;-65
2020/12/20 10:04:16;;;;;;;3.17;2.88;;;;;;;;;;5016993;28;20219;-66
2020/12/20 10:06:42;;;;;;;2.70;2.50;;;;;;;;;;5013903;28;20611;-65
2020/12/20 10:09:08;;;;;;;2.30;1.83;;;;;;;;;;5012453;28;20178;-66
2020/12/20 10:11:33;;;;;;;3.10;2.80;;;;;;;;;;5014257;28;20900;-67
2020/12/20 10:13:59;;;;;;;3.20;2.90;;;;;;;;;;5019831;28;20429;-66
2020/12/20 10:16:25;;;;;;;4.57;2.00;;;;;;;;;;5033207;28;20423;-66
2020/12/20 10:18:52;;;;;;;3.47;2.53;;;;;;;;;;5033281;28;20431;-67
2020/12/20 10:21:18;;;;;;;3.47;2.00;;;;;;;;;;5033695;28;20247;-67
2020/12/20 10:23:44;;;;;;;6.60;3.10;;;;;;;;;;5033711;28;20671;-67
2020/12/20 10:26:12;;;;;;;2.83;2.35;;;;;;;;;;5033215;28;20647;-67
2020/12/20 10:28:38;;;;;;;1.80;1.70;;;;;;;;;;5033816;28;20580;-65
2020/12/20 10:31:04;;;;;;;2.97;2.45;;;;;;;;;;5033341;28;20177;-66
2020/12/20 10:33:30;;;;;;;2.10;2.00;;;;;;;;;;5033843;28;20611;-66
2020/12/20 10:35:56;;;;;;;2.97;2.33;;;;;;;;;;5033283;28;20176;-65
2020/12/20 10:38:22;;;;;;;2.13;2.03;;;;;;;;;;5033027;28;20204;-65
2020/12/20 10:40:48;;;;;;;1.73;1.38;;;;;;;;;;5033281;28;20484;-66
2020/12/20 10:43:14;;;;;;;1.52;1.38;;;;;;;;;;5033629;28;20173;-66
2020/12/20 10:45:41;;;;;;;3.17;2.97;;;;;;;;;;5033048;28;20176;-67
2020/12/20 10:48:07;;;;;;;2.97;1.98;;;;;;;;;;5032697;28;20475;-66
2020/12/20 10:50:33;;;;;;;3.50;1.87;;;;;;;;;;5032630;28;20651;-65
2020/12/20 10:53:00;;;;;;;2.47;2.28;;;;;;;;;;5033067;28;20438;-66
2020/12/20 10:55:25;;;;;;;2.55;1.67;;;;;;;;;;5033151;28;20184;-65
2020/12/20 10:57:51;;;;;;;2.50;1.87;;;;;;;;;;5032390;28;20232;-66
2020/12/20 11:00:17;;;;;;;2.08;1.95;;;;;;;;;;5032689;28;20435;-66
2020/12/20 11:02:43;;;;;;;3.72;3.15;;;;;;;;;;5032533;28;20232;-67
2020/12/20 11:05:09;;;;;;;2.33;2.23;;;;;;;;;;5032750;28;20169;-66
2020/12/20 11:07:35;;;;;;;4.83;2.80;;;;;;;;;;5032601;28;20427;-66
2020/12/20 11:10:01;;;;;;;2.67;2.10;;;;;;;;;;5031752;28;20407;-65
2020/12/20 11:12:27;;;;;;;2.65;2.35;;;;;;;;;;5032629;28;20412;-66
2020/12/20 11:14:53;;;;;;;3.07;2.70;;;;;;;;;;5031953;28;20518;-66
2020/12/20 11:17:19;;;;;;;4.73;1.80;;;;;;;;;;5032048;28;20458;-66
2020/12/20 11:19:45;;;;;;;2.33;2.13;;;;;;;;;;5031950;28;20419;-66
2020/12/20 11:22:11;;;;;;;2.65;2.47;;;;;;;;;;5032130;28;20199;-66
2020/12/20 11:24:38;;;;;;;2.00;1.90;;;;;;;;;;5032304;28;20173;-66
2020/12/20 11:27:04;;;;;;;2.25;2.10;;;;;;;;;;5032160;28;20431;-65
2020/12/20 11:29:30;;;;;;;4.25;3.25;;;;;;;;;;5032067;28;20177;-66
2020/12/20 11:31:56;;;;;;;5.20;2.83;;;;;;;;;;5032346;28;20222;-66
2020/12/20 11:34:22;;;;;;;2.70;2.30;;;;;;;;;;5032293;28;20571;-66
2020/12/20 11:36:48;;;;;;;3.03;2.10;;;;;;;;;;5032380;28;20808;-66
2020/12/20 11:39:16;;;;;;;1.92;1.63;;;;;;;;;;5031614;28;20179;-64
2020/12/20 11:41:42;;;;;;;3.60;3.28;;;;;;;;;;5032054;28;20261;-66
2020/12/20 11:44:09;;;;;;;2.88;2.53;;;;;;;;;;5031443;28;20173;-65
2020/12/20 11:46:35;;;;;;;6.72;3.67;;;;;;;;;;5032006;28;20246;-65
2020/12/20 11:49:01;;;;;;;4.38;2.35;;;;;;;;;;5031736;28;20176;-65
2020/12/20 11:51:27;;;;;;;2.85;2.65;;;;;;;;;;5031550;28;20204;-66
2020/12/20 11:53:55;;;;;;;3.10;2.80;;;;;;;;;;5031667;28;20173;-67
2020/12/20 11:56:21;;;;;;;3.33;2.50;;;;;;;;;;5031742;28;20252;-65
2020/12/20 11:58:47;;;;;;;4.38;2.40;;;;;;;;;;5031517;28;20594;-66
2020/12/20 12:01:13;;;;;;;2.03;1.93;;;;;;;;;;5031589;28;20196;-66
2020/12/20 12:03:39;;;;;;;2.45;2.35;;;;;;;;;;5031282;28;20447;-66
2020/12/20 12:06:06;;;;;;;3.07;2.43;;;;;;;;;;5031339;28;20204;-66
2020/12/20 12:08:32;;;;;;;2.83;2.25;;;;;;;;;;5031228;28;20427;-65
2020/12/20 12:10:58;;;;;;;2.87;2.63;;;;;;;;;;5031363;28;20242;-67
2020/12/20 12:13:24;;;;;;;3.60;2.58;;;;;;;;;;5031559;28;20404;-67
2020/12/20 12:15:50;;;;;;;5.88;3.08;;;;;;;;;;5031230;28;20324;-66
2020/12/20 12:18:16;;;;;;;4.60;2.93;;;;;;;;;;5049830;23;20298;-64
2020/12/20 12:20:42;;;;;;;2.42;2.20;;;;;;;;;;5030356;28;20435;-63
2020/12/20 12:23:08;;;;;;;3.87;3.20;;;;;;;;;;5030072;28;20207;-64
2020/12/20 12:25:35;;;;;;;3.03;2.67;;;;;;;;;;5030504;28;20449;-64
2020/12/20 12:28:01;;;;;;;5.53;4.00;;;;;;;;;;5030436;28;20251;-64
2020/12/20 12:30:27;;;;;;;2.90;2.70;;;;;;;;;;5031086;28;20164;-64
2020/12/20 12:32:54;;;;;;;2.47;2.30;;;;;;;;;;5031287;28;20200;-65
2020/12/20 12:35:20;;;;;;;2.33;2.03;;;;;;;;;;5031324;28;20545;-65
2020/12/20 12:37:47;;;;;;;2.25;2.15;;;;;;;;;;5030852;28;20235;-65
2020/12/20 12:40:14;;;;;;;3.78;3.50;;;;;;;;;;5030382;28;20702;-66
2020/12/20 12:42:40;;;;;;;1.90;1.80;;;;;;;;;;5029753;28;20616;-65
2020/12/20 12:45:06;;;;;;;3.20;2.45;;;;;;;;;;5031150;28;20169;-65
2020/12/20 12:47:32;;;;;;;2.78;1.88;;;;;;;;;;5031032;28;20611;-65
2020/12/20 12:49:58;;;;;;;3.40;3.20;;;;;;;;;;5030374;28;20205;-65
2020/12/20 12:52:25;;;;;;;2.73;2.53;;;;;;;;;;5030753;28;20655;-65
2020/12/20 12:54:51;;;;;;;2.42;2.33;;;;;;;;;;5031025;28;20411;-65
2020/12/20 12:57:17;;;;;;;1.83;1.80;;;;;;;;;;5029959;28;20253;-63
2020/12/20 12:59:43;;;;;;;2.20;2.00;;;;;;;;;;5029423;28;20180;-65
2020/12/20 13:02:09;;;;;;;2.85;2.65;;;;;;;;;;5030523;28;20188;-65
2020/12/20 13:04:35;;;;;;;3.92;2.65;;;;;;;;;;5030588;28;20164;-64
2020/12/20 13:07:01;;;;;;;4.63;3.00;;;;;;;;;;5030790;28;20275;-64
2020/12/20 13:09:28;;;;;;;2.60;1.92;;;;;;;;;;5030796;28;20179;-64
2020/12/20 13:11:54;;;;;;;3.00;2.67;;;;;;;;;;5030465;28;20177;-64
2020/12/20 13:14:20;;;;;;;2.30;2.20;;;;;;;;;;5030858;28;20184;-64
2020/12/20 13:16:50;;;;;;;2.07;1.97;;;;;;;;;;5030491;28;20180;-64
2020/12/20 13:19:16;;;;;;;2.83;2.10;;;;;;;;;;5030590;28;20419;-64
2020/12/20 13:21:42;;;;;;;2.75;2.55;;;;;;;;;;5030739;28;20204;-64
2020/12/20 13:24:08;;;;;;;8.82;3.17;;;;;;;;;;5030370;28;20177;-64
2020/12/20 13:26:34;;;;;;;2.97;1.70;;;;;;;;;;5030701;28;20173;-64
2020/12/20 13:29:00;;;;;;;1.50;1.40;;;;;;;;;;5030332;28;20415;-65
2020/12/20 13:31:26;;;;;;;3.30;2.95;;;;;;;;;;5030796;28;20451;-64
2020/12/20 13:33:52;;;;;;;3.38;2.35;;;;;;;;;;5030562;28;20173;-65
2020/12/20 13:36:18;;;;;;;2.47;2.10;;;;;;;;;;5030653;28;20181;-65
2020/12/20 13:38:44;;;;;;;5.60;2.88;;;;;;;;;;5029176;28;20232;-64
2020/12/20 13:41:13;;;;;;;2.00;1.90;;;;;;;;;;5030333;28;20280;-64
2020/12/20 13:43:39;;;;;;;3.00;2.65;;;;;;;;;;5030696;28;20176;-65
2020/12/20 13:46:05;;;;;;;2.30;2.10;;;;;;;;;;5030182;28;20574;-64
2020/12/20 13:48:31;;;;;;;2.92;2.72;;;;;;;;;;5029242;28;20812;-65
2020/12/20 13:50:57;;;;;;;2.90;2.75;;;;;;;;;;5030498;28;20173;-65
2020/12/20 13:53:23;;;;;;;3.73;2.20;;;;;;;;;;5030532;28;20183;-65
2020/12/20 13:55:49;;;;;;;2.47;2.30;;;;;;;;;;5030392;28;20410;-65
2020/12/20 13:58:18;;;;;;;1.90;1.70;;;;;;;;;;5030050;28;20196;-65
2020/12/20 14:00:45;;;;;;;3.38;2.50;;;;;;;;;;5030023;28;20903;-65
2020/12/20 14:03:11;;;;;;;2.45;2.25;;;;;;;;;;5030300;28;20252;-65
2020/12/20 14:05:39;;;;;;;2.47;2.38;;;;;;;;;;5030093;28;20208;-65
2020/12/20 14:08:05;;;;;;;3.22;2.95;;;;;;;;;;5031074;28;20243;-65
2020/12/20 14:10:31;;;;;;;2.00;1.90;;;;;;;;;;5032152;28;20176;-65
2020/12/20 14:13:00;;;;;;;6.10;2.63;;;;;;;;;;5033787;28;20186;-65
2020/12/20 14:15:26;;;;;;;2.95;2.72;;;;;;;;;;5033915;28;20778;-65
2020/12/20 14:17:52;;;;;;;2.53;2.17;;;;;;;;;;5033341;28;20266;-65
2020/12/20 14:20:18;;;;;;;3.05;2.72;;;;;;;;;;5032916;28;20191;-65
2020/12/20 14:22:44;;;;;;;7.40;3.05;;;;;;;;;;5032199;28;20643;-65
2020/12/20 14:25:10;;;;;;;3.30;1.40;;;;;;;;;;5033608;28;20302;-65
2020/12/20 14:27:36;;;;;;;3.15;2.85;;;;;;;;;;5033353;28;20427;-65
2020/12/20 14:30:03;;;;;;;2.57;2.20;;;;;;;;;;5032567;28;20725;-65
2020/12/20 14:32:29;;;;;;;2.78;2.58;;;;;;;;;;5033360;28;20415;-65
2020/12/20 14:34:55;;;;;;;2.60;2.40;;;;;;;;;;5033383;28;20323;-65
2020/12/20 14:37:21;;;;;;;3.23;3.00;;;;;;;;;;5033243;28;20965;-64
2020/12/20 14:39:49;;;;;;;2.75;2.65;;;;;;;;;;5033050;28;20555;-65